Time;durP1;ratioP1;P1;durP2;ratioP2;P2;SDS_P1;SDS_P2;PMS_P1;PMS_P2;Temp;Humidity;BMP_temperature;BMP_pressure;BME280_temperature;BME280_humidity;BME280_pressure;Samples;Min_cycle;Max_cycle;Signal;HPM_P1;HPM_P2
2022/01/08 00:01:56;;;;;;;0.20;0.20;;;;;;;23.08;8.45;100008.09;5072723;28;20077;-69
2022/01/08 00:04:22;;;;;;;0.30;0.30;;;;;;;23.00;8.41;100015.72;5073600;28;20020;-69
2022/01/08 00:06:47;;;;;;;0.30;0.30;;;;;;;23.05;8.47;100021.19;5077909;28;20036;-68
2022/01/08 00:09:12;;;;;;;0.30;0.30;;;;;;;23.06;8.52;100016.56;5079387;28;20034;-70
2022/01/08 00:11:41;;;;;;;0.30;0.30;;;;;;;23.10;8.58;100020.34;5077639;28;20021;-69
2022/01/08 00:14:07;;;;;;;0.28;0.28;;;;;;;23.02;8.46;100010.81;5077586;28;20419;-69
2022/01/08 00:16:33;;;;;;;0.15;0.15;;;;;;;23.08;8.38;100016.25;5075866;28;20096;-69
2022/01/08 00:18:59;;;;;;;0.20;0.20;;;;;;;23.01;8.44;100019.28;5077402;28;20450;-70
2022/01/08 00:21:24;;;;;;;0.15;0.15;;;;;;;23.10;8.35;100022.28;5077478;28;20040;-70
2022/01/08 00:23:49;;;;;;;0.30;0.30;;;;;;;23.07;8.41;100020.91;5077356;28;20028;-69
2022/01/08 00:26:15;;;;;;;0.30;0.30;;;;;;;23.01;8.41;100025.53;5076899;28;20157;-69
2022/01/08 00:28:40;;;;;;;0.10;0.10;;;;;;;23.06;8.53;100028.28;5077232;28;20021;-70
2022/01/08 00:31:09;;;;;;;0.20;0.20;;;;;;;22.99;8.62;100033.19;5077226;28;20028;-69
2022/01/08 00:33:35;;;;;;;0.20;0.20;;;;;;;23.03;8.45;100026.06;5076715;28;20040;-69
2022/01/08 00:36:01;;;;;;;0.30;0.30;;;;;;;23.11;8.40;100023.88;5076981;28;20021;-69
2022/01/08 00:38:26;;;;;;;0.30;0.30;;;;;;;23.07;8.54;100026.38;5074678;28;20035;-69
2022/01/08 00:40:51;;;;;;;0.32;0.32;;;;;;;22.98;8.49;100036.19;5056596;28;20468;-69
2022/01/08 00:43:17;;;;;;;0.25;0.25;;;;;;;23.06;8.40;100038.38;5056861;28;20033;-69
2022/01/08 00:45:42;;;;;;;0.20;0.20;;;;;;;23.04;8.38;100030.44;5055620;28;20029;-69
2022/01/08 00:48:07;;;;;;;0.30;0.30;;;;;;;23.04;8.47;100035.06;5056801;28;20055;-69
2022/01/08 00:50:33;;;;;;;0.20;0.20;;;;;;;22.96;8.37;100031.03;5056543;28;20447;-69
2022/01/08 00:52:58;;;;;;;0.30;0.30;;;;;;;23.05;8.45;100025.81;5055375;28;20057;-70
2022/01/08 00:55:24;;;;;;;0.22;0.22;;;;;;;23.04;8.35;100030.44;5056771;28;20033;-70
2022/01/08 00:57:49;;;;;;;0.22;0.22;;;;;;;23.03;8.34;100034.25;5056906;28;20021;-70
2022/01/08 01:00:15;;;;;;;0.20;0.20;;;;;;;23.03;8.58;100028.00;5056462;28;20466;-69
2022/01/08 01:02:40;;;;;;;0.20;0.20;;;;;;;23.02;8.50;100037.25;5056457;28;20033;-69
2022/01/08 01:05:05;;;;;;;0.20;0.20;;;;;;;23.08;8.50;100044.34;5057056;28;20037;-71
2022/01/08 01:07:31;;;;;;;0.30;0.30;;;;;;;23.08;8.49;100040.78;5056598;28;20111;-69
2022/01/08 01:09:56;;;;;;;0.20;0.20;;;;;;;23.00;8.50;100047.63;5056169;28;20375;-69
2022/01/08 01:12:22;;;;;;;0.30;0.30;;;;;;;23.02;8.46;100037.25;5055074;28;20033;-70
2022/01/08 01:14:47;;;;;;;0.20;0.20;;;;;;;23.05;8.34;100037.53;5056567;28;20029;-69
2022/01/08 01:17:12;;;;;;;0.20;0.20;;;;;;;23.04;8.36;100035.06;5055707;28;20391;-69
2022/01/08 01:19:38;;;;;;;0.20;0.20;;;;;;;23.00;8.49;100040.25;5056264;28;20021;-70
2022/01/08 01:22:04;;;;;;;0.20;0.20;;;;;;;23.03;8.53;100052.53;5055973;28;20040;-69
2022/01/08 01:24:31;;;;;;;0.20;0.20;;;;;;;22.98;8.37;100047.91;5056569;28;20029;-69
2022/01/08 01:48:20;;;;;;;0.20;0.20;;;;;;;23.02;8.30;100059.84;5075532;28;20077;-69
2022/01/08 01:50:45;;;;;;;0.20;0.20;;;;;;;23.00;8.37;100066.69;5075786;28;20036;-69
2022/01/08 01:53:11;;;;;;;0.20;0.20;;;;;;;22.93;8.42;100064.25;5075470;28;20375;-69
2022/01/08 01:55:36;;;;;;;0.15;0.15;;;;;;;23.03;8.43;100068.88;5075109;28;20463;-69
2022/01/08 01:58:05;;;;;;;0.10;0.10;;;;;;;23.01;8.48;100068.34;5075087;28;20035;-69
2022/01/08 02:00:31;;;;;;;0.20;0.20;;;;;;;22.96;8.35;100077.34;5075003;28;20032;-70
2022/01/08 02:02:56;;;;;;;0.15;0.15;;;;;;;23.00;8.40;100080.31;5075081;28;20024;-69
2022/01/08 02:05:22;;;;;;;0.15;0.15;;;;;;;22.95;8.36;100081.16;5073830;28;20024;-69
2022/01/08 02:07:47;;;;;;;0.20;0.20;;;;;;;22.98;8.47;100088.78;5075163;28;20471;-69
2022/01/08 02:10:13;;;;;;;0.20;0.20;;;;;;;23.01;8.29;100084.69;5075186;28;20470;-69
2022/01/08 02:12:38;;;;;;;0.10;0.10;;;;;;;23.01;8.53;100090.16;5075163;28;20028;-69
2022/01/08 02:15:04;;;;;;;0.20;0.20;;;;;;;22.99;8.47;100097.75;5074729;28;20127;-69
2022/01/08 02:17:30;;;;;;;0.20;0.20;;;;;;;23.01;8.34;100090.94;5074404;28;20049;-69
2022/01/08 02:19:55;;;;;;;0.15;0.15;;;;;;;22.95;8.46;100102.13;5075087;28;20099;-69
2022/01/08 02:22:21;;;;;;;0.25;0.20;;;;;;;22.96;8.24;100101.88;5075490;28;20121;-70
2022/01/08 02:24:46;;;;;;;2.10;0.30;;;;;;;22.93;8.47;100099.69;5076241;28;20103;-69
2022/01/08 02:27:12;;;;;;;0.17;0.17;;;;;;;22.96;8.41;100081.97;5076048;28;20429;-69
2022/01/08 02:29:38;;;;;;;0.20;0.10;;;;;;;23.01;8.41;100090.94;5074238;28;20356;-70
2022/01/08 02:32:10;;;;;;;0.20;0.20;;;;;;;22.95;8.24;100081.16;5074772;28;20051;-69
2022/01/08 02:34:39;;;;;;;0.10;0.10;;;;;;;22.99;8.26;100084.97;5074396;28;20487;-69
2022/01/08 02:37:05;;;;;;;0.10;0.10;;;;;;;22.99;8.41;100082.25;5074520;28;20028;-69
2022/01/08 02:39:34;;;;;;;0.13;0.13;;;;;;;22.91;8.42;100074.63;5065773;28;20487;-69
2022/01/08 02:41:59;;;;;;;0.20;0.20;;;;;;;22.85;8.49;100081.19;5054263;28;20120;-69
2022/01/08 02:44:25;;;;;;;0.20;0.20;;;;;;;23.01;8.33;100080.06;5054460;28;20029;-70
2022/01/08 02:46:51;;;;;;;0.10;0.10;;;;;;;22.94;8.50;100084.16;5055244;28;20384;-69
2022/01/08 02:49:16;;;;;;;0.13;0.13;;;;;;;22.94;8.40;100081.41;5053311;28;20029;-70
2022/01/08 02:51:42;;;;;;;0.10;0.10;;;;;;;23.00;8.41;100086.59;5054367;28;20475;-69
2022/01/08 02:54:09;;;;;;;0.20;0.20;;;;;;;23.02;8.41;100081.66;5053997;28;20025;-69
2022/01/08 02:56:38;;;;;;;0.20;0.20;;;;;;;22.98;8.33;100080.59;5054210;28;20021;-70
2022/01/08 02:59:04;;;;;;;0.13;0.13;;;;;;;22.95;8.34;100083.88;5053958;28;20033;-69
2022/01/08 03:01:29;;;;;;;0.10;0.10;;;;;;;22.92;8.43;100086.34;5052750;28;20074;-69
2022/01/08 03:03:56;;;;;;;0.15;0.15;;;;;;;22.94;8.41;100082.25;5054217;28;20025;-70
2022/01/08 03:06:22;;;;;;;0.15;0.15;;;;;;;22.94;8.44;100086.88;5053736;28;20029;-69
2022/01/08 03:08:47;;;;;;;0.20;0.20;;;;;;;22.95;8.44;100092.03;5053825;28;20025;-70
2022/01/08 03:11:13;;;;;;;0.20;0.20;;;;;;;22.96;8.43;100088.25;5052657;28;20032;-69
2022/01/08 03:13:38;;;;;;;0.17;0.17;;;;;;;23.00;8.49;100088.50;5053973;28;20028;-69
2022/01/08 03:16:04;;;;;;;0.20;0.20;;;;;;;22.93;8.33;100088.78;5053835;28;20487;-69
2022/01/08 03:18:29;;;;;;;0.20;0.20;;;;;;;22.99;8.31;100097.75;5053398;28;20460;-69
2022/01/08 03:21:02;;;;;;;0.10;0.10;;;;;;;22.97;8.46;100099.94;5053910;28;20045;-70
2022/01/08 03:23:39;;;;;;;0.20;0.20;;;;;;;22.97;8.36;100105.41;5053858;28;20028;-70
2022/01/08 03:26:04;;;;;;;0.20;0.20;;;;;;;22.98;8.38;100101.59;5037128;28;20032;-70
2022/01/08 03:28:30;;;;;;;0.20;0.20;;;;;;;22.92;8.56;100103.53;5053480;28;20031;-69
2022/01/08 03:30:55;;;;;;;0.10;0.10;;;;;;;22.98;8.36;100101.59;5053662;28;20094;-69
2022/01/08 03:33:20;;;;;;;0.20;0.20;;;;;;;22.91;8.47;100098.34;5054240;28;20379;-69
2022/01/08 03:35:46;;;;;;;0.10;0.10;;;;;;;22.86;8.44;100099.16;5053207;28;20464;-69
2022/01/08 03:38:11;;;;;;;0.20;0.20;;;;;;;22.92;8.50;100098.06;5053508;28;20032;-69
2022/01/08 03:40:36;;;;;;;0.20;0.20;;;;;;;22.90;8.60;100093.97;5070358;28;20025;-69
2022/01/08 03:43:02;;;;;;;0.10;0.10;;;;;;;22.90;8.42;100093.97;5073172;28;20386;-70
2022/01/08 03:45:27;;;;;;;0.30;0.20;;;;;;;22.90;8.36;100097.50;5072305;28;20036;-70
2022/01/08 03:48:28;;;;;;;0.10;0.10;;;;;;;22.85;8.42;100102.97;5073682;28;20032;-69
2022/01/08 03:50:45;;;;;;;0.20;0.20;;;;;;;22.80;8.61;100101.09;5072824;28;20040;-69
2022/01/08 03:53:11;;;;;;;0.13;0.13;;;;;;;22.86;8.44;100105.44;5073473;28;20050;-69
2022/01/08 03:55:36;;;;;;;0.22;0.22;;;;;;;22.88;8.61;100094.25;5073449;28;20455;-69
2022/01/08 03:58:03;;;;;;;0.10;0.10;;;;;;;22.89;8.63;100106.78;5073320;28;20356;-69
2022/01/08 04:00:28;;;;;;;0.20;0.20;;;;;;;22.88;8.45;100105.16;5073121;28;20029;-69
2022/01/08 04:02:54;;;;;;;0.20;0.20;;;;;;;22.86;8.42;100110.88;5073179;28;20029;-69
2022/01/08 04:05:20;;;;;;;0.20;0.20;;;;;;;22.88;8.50;100094.25;5073534;28;20029;-69
2022/01/08 04:07:45;;;;;;;0.10;0.10;;;;;;;22.92;8.44;100114.44;5073362;28;20459;-69
2022/01/08 04:10:10;;;;;;;0.10;0.10;;;;;;;22.85;8.38;100108.44;5073433;28;20028;-70
2022/01/08 04:13:03;;;;;;;0.10;0.10;;;;;;;22.91;8.49;100112.78;5073386;28;20470;-69
2022/01/08 04:17:47;;;;;;;0.20;0.20;;;;;;;22.90;8.51;100116.59;5072964;28;20489;-69
2022/01/08 04:20:13;;;;;;;0.20;0.20;;;;;;;22.89;8.42;100104.06;5073311;28;20059;-69
2022/01/08 04:22:39;;;;;;;0.20;0.20;;;;;;;22.90;8.50;100105.69;5073207;28;20055;-69
2022/01/08 04:25:04;;;;;;;0.10;0.10;;;;;;;22.91;8.42;100101.06;5073283;28;20028;-69
2022/01/08 04:27:29;;;;;;;0.20;0.20;;;;;;;22.88;8.55;100095.06;5073023;28;20035;-69
2022/01/08 04:29:55;;;;;;;0.20;0.20;;;;;;;22.84;8.72;100099.44;5073505;28;20099;-69
2022/01/08 04:32:20;;;;;;;0.20;0.20;;;;;;;22.91;8.37;100090.97;5073057;28;20487;-69
2022/01/08 04:34:46;;;;;;;0.20;0.20;;;;;;;22.91;8.57;100090.19;5073237;28;20451;-69
2022/01/08 04:37:11;;;;;;;0.20;0.20;;;;;;;22.90;8.54;100089.34;5071587;28;20028;-69
2022/01/08 04:39:36;;;;;;;0.20;0.20;;;;;;;22.88;8.44;100080.63;5065721;28;20083;-69
2022/01/08 04:42:02;;;;;;;0.10;0.10;;;;;;;22.85;8.58;100086.63;5052967;28;20025;-69
2022/01/08 04:44:28;;;;;;;0.20;0.20;;;;;;;22.83;8.81;100100.53;5053687;28;20107;-69
2022/01/08 04:46:53;;;;;;;0.20;0.20;;;;;;;22.88;8.61;100096.97;5051761;28;20372;-69
2022/01/08 04:49:18;;;;;;;0.20;0.20;;;;;;;22.85;8.41;100102.97;5052647;28;20025;-69
2022/01/08 04:51:44;;;;;;;0.20;0.20;;;;;;;22.84;8.50;100107.63;5054170;28;20426;-70
2022/01/08 04:54:09;;;;;;;0.20;0.20;;;;;;;22.79;8.64;100104.09;5056635;28;20456;-69
2022/01/08 04:56:35;;;;;;;0.20;0.20;;;;;;;22.83;8.55;100113.34;5056561;28;20367;-70
2022/01/08 04:59:00;;;;;;;0.20;0.20;;;;;;;22.85;8.51;100108.44;5056716;28;20379;-70
2022/01/08 05:01:26;;;;;;;0.10;0.10;;;;;;;22.85;8.46;100108.44;5056351;28;20474;-70
2022/01/08 05:03:51;;;;;;;0.20;0.20;;;;;;;22.90;8.54;100111.13;5056494;28;20067;-69
2022/01/08 05:06:16;;;;;;;0.20;0.20;;;;;;;22.91;8.38;100101.06;5056406;28;20036;-69
2022/01/08 05:08:42;;;;;;;0.10;0.10;;;;;;;22.88;8.63;100108.69;5056390;28;20087;-69
2022/01/08 05:11:07;;;;;;;0.20;0.20;;;;;;;22.90;8.49;100110.31;5056252;28;20017;-69
2022/01/08 05:13:33;;;;;;;0.20;0.20;;;;;;;22.88;8.43;100108.69;5056304;28;20025;-70
2022/01/08 05:15:59;;;;;;;0.20;0.20;;;;;;;22.89;8.55;100109.53;5055866;28;20349;-70
2022/01/08 05:18:25;;;;;;;0.30;0.30;;;;;;;22.86;8.44;100113.59;5055796;28;20045;-70
2022/01/08 05:21:06;;;;;;;0.32;0.30;;;;;;;22.84;8.59;100113.06;5056323;28;20037;-69
2022/01/08 05:23:31;;;;;;;0.20;0.20;;;;;;;22.87;8.62;100117.16;5056149;28;20029;-69
2022/01/08 05:25:57;;;;;;;0.20;0.20;;;;;;;22.92;8.43;100121.75;5056005;28;20112;-70
2022/01/08 05:28:22;;;;;;;0.20;0.20;;;;;;;22.86;8.64;100121.78;5054958;28;20376;-69
2022/01/08 05:30:48;;;;;;;0.28;0.20;;;;;;;22.82;8.45;100119.91;5056252;28;20087;-69
2022/01/08 05:33:13;;;;;;;0.20;0.20;;;;;;;22.88;8.49;100110.59;5055814;28;20021;-70
2022/01/08 05:35:38;;;;;;;0.20;0.20;;;;;;;22.78;8.58;100119.59;5055952;28;20372;-69
2022/01/08 05:38:05;;;;;;;0.20;0.20;;;;;;;22.87;8.47;100117.16;5055871;28;20025;-69
2022/01/08 05:40:30;;;;;;;0.10;0.10;;;;;;;22.83;8.51;100126.97;5069901;28;20107;-69
2022/01/08 05:42:55;;;;;;;0.20;0.20;;;;;;;22.86;8.37;100127.22;5075503;28;20027;-69
2022/01/08 05:45:21;;;;;;;0.20;0.20;;;;;;;22.82;8.49;100123.44;5075779;28;20048;-69
2022/01/08 05:47:46;;;;;;;0.20;0.20;;;;;;;22.87;8.41;100125.34;5075607;28;20536;-69
2022/01/08 05:50:12;;;;;;;0.20;0.20;;;;;;;22.86;8.54;100118.25;5075400;28;20023;-69
2022/01/08 05:52:37;;;;;;;0.20;0.20;;;;;;;22.86;8.54;100123.69;5075634;28;20028;-70
2022/01/08 05:55:03;;;;;;;0.20;0.20;;;;;;;22.82;8.61;100128.88;5075175;28;20383;-69
2022/01/08 05:57:28;;;;;;;0.20;0.20;;;;;;;22.87;8.61;100130.78;5076275;28;20032;-69
2022/01/08 05:59:54;;;;;;;0.20;0.20;;;;;;;22.83;8.49;100135.13;5075128;28;20390;-69
2022/01/08 06:02:19;;;;;;;0.20;0.20;;;;;;;22.84;8.51;100129.41;5073592;28;20032;-70
2022/01/08 06:04:45;;;;;;;0.20;0.20;;;;;;;22.86;8.54;100138.13;5074222;28;20032;-69
2022/01/08 06:07:10;;;;;;;0.20;0.20;;;;;;;22.84;8.51;100134.06;5074341;28;20041;-70
2022/01/08 06:09:35;;;;;;;0.20;0.20;;;;;;;22.83;8.55;100132.41;5075238;28;20025;-69
2022/01/08 06:12:01;;;;;;;0.20;0.20;;;;;;;22.79;8.50;100137.59;5074925;28;20032;-70
2022/01/08 06:14:26;;;;;;;0.10;0.10;;;;;;;22.84;8.45;100139.50;5074843;28;20028;-69
2022/01/08 06:16:52;;;;;;;0.20;0.20;;;;;;;22.78;8.45;100141.41;5074882;28;20060;-69
2022/01/08 06:19:17;;;;;;;0.47;0.20;;;;;;;22.80;8.62;100139.25;5073498;28;20078;-69
2022/01/08 06:21:43;;;;;;;0.20;0.20;;;;;;;22.80;8.55;100149.31;5075304;28;20359;-69
2022/01/08 06:24:08;;;;;;;0.20;0.20;;;;;;;22.84;8.54;100132.13;5074961;28;20024;-69
2022/01/08 06:26:35;;;;;;;0.20;0.20;;;;;;;22.87;8.48;100133.50;5074570;28;20056;-69
2022/01/08 06:29:00;;;;;;;0.20;0.20;;;;;;;22.84;8.51;100136.78;5074958;28;20073;-70
2022/01/08 06:31:26;;;;;;;0.10;0.10;;;;;;;22.86;8.39;100137.31;5074604;28;20437;-69
2022/01/08 06:33:51;;;;;;;0.15;0.15;;;;;;;22.85;8.44;100146.56;5074771;28;20033;-69
2022/01/08 06:36:20;;;;;;;0.20;0.20;;;;;;;22.85;8.55;100147.41;5075140;28;20398;-69
2022/01/08 06:38:51;;;;;;;0.10;0.10;;;;;;;22.82;8.61;100156.13;5074697;28;20041;-69
2022/01/08 06:41:16;;;;;;;0.30;0.30;;;;;;;22.80;8.69;100147.41;5034602;28;20040;-69
2022/01/08 06:43:42;;;;;;;0.20;0.20;;;;;;;22.84;8.59;100153.13;5033492;28;20021;-69
2022/01/08 06:46:07;;;;;;;0.20;0.20;;;;;;;22.82;8.62;100155.31;5034892;28;20044;-69
2022/01/08 06:48:32;;;;;;;0.20;0.20;;;;;;;22.81;8.67;100151.75;5034679;28;20025;-69
2022/01/08 06:50:58;;;;;;;0.20;0.20;;;;;;;22.84;8.58;100153.13;5034593;28;20321;-69
2022/01/08 06:53:23;;;;;;;0.22;0.22;;;;;;;22.83;8.55;100143.31;5034642;28;20469;-69
2022/01/08 06:55:49;;;;;;;0.20;0.20;;;;;;;22.82;8.49;100150.69;5034576;28;20029;-69
2022/01/08 06:58:14;;;;;;;0.30;0.20;;;;;;;22.83;8.61;100149.56;5034067;28;20396;-69
2022/01/08 07:00:39;;;;;;;0.10;0.10;;;;;;;22.83;8.57;100148.75;5034517;28;20048;-69
2022/01/08 07:03:09;;;;;;;0.20;0.20;;;;;;;22.82;8.61;100147.94;5034588;28;20033;-69
2022/01/08 07:05:35;;;;;;;0.30;0.30;;;;;;;22.81;8.64;100149.03;5034058;28;20526;-69
2022/01/08 07:08:00;;;;;;;0.20;0.20;;;;;;;22.82;8.49;100147.16;5034111;28;20033;-69
2022/01/08 07:10:26;;;;;;;0.20;0.20;;;;;;;22.78;8.53;100141.41;5034103;28;20384;-69
2022/01/08 07:12:51;;;;;;;0.20;0.20;;;;;;;22.79;8.45;100153.94;5033974;28;20041;-69
2022/01/08 07:15:16;;;;;;;0.17;0.17;;;;;;;22.78;8.53;100156.94;5033830;28;20025;-69
2022/01/08 07:17:42;;;;;;;0.20;0.20;;;;;;;22.80;8.58;100149.31;5033689;28;20049;-69
2022/01/08 07:20:08;;;;;;;0.20;0.20;;;;;;;22.80;8.63;100152.03;5034068;28;20376;-69
2022/01/08 07:22:34;;;;;;;0.20;0.20;;;;;;;22.82;8.71;100152.59;5034104;28;20064;-69
2022/01/08 07:24:59;;;;;;;0.20;0.20;;;;;;;22.81;8.59;100151.75;5034562;28;20021;-69
2022/01/08 07:27:24;;;;;;;0.20;0.20;;;;;;;22.83;8.69;100154.22;5033893;28;20464;-69
2022/01/08 07:29:50;;;;;;;0.20;0.20;;;;;;;22.80;8.69;100160.19;5034213;28;20033;-69
2022/01/08 07:32:15;;;;;;;0.13;0.13;;;;;;;22.86;8.54;100153.66;5033979;28;20029;-69
2022/01/08 07:34:41;;;;;;;0.20;0.20;;;;;;;22.81;8.79;100150.94;5033645;28;20041;-69
2022/01/08 07:37:06;;;;;;;0.20;0.20;;;;;;;22.84;8.52;100150.41;5033904;28;20033;-69
2022/01/08 07:39:31;;;;;;;0.20;0.20;;;;;;;22.83;8.79;100156.94;5042889;28;20028;-69
2022/01/08 07:41:57;;;;;;;0.20;0.20;;;;;;;22.83;8.56;100162.38;5073508;28;20032;-69
2022/01/08 07:44:22;;;;;;;0.30;0.30;;;;;;;22.80;8.55;100163.75;5074001;28;20020;-69
2022/01/08 07:46:48;;;;;;;0.20;0.20;;;;;;;22.79;8.76;100162.13;5073546;28;20374;-69
2022/01/08 07:49:13;;;;;;;0.65;0.30;;;;;;;22.82;8.49;100158.03;5074215;28;20020;-69
2022/01/08 07:51:39;;;;;;;0.20;0.20;;;;;;;22.81;8.65;100157.19;5074031;28;20028;-69
2022/01/08 07:54:06;;;;;;;0.20;0.20;;;;;;;22.82;8.50;100155.31;5073722;28;20485;-69
2022/01/08 07:56:34;;;;;;;0.20;0.20;;;;;;;22.79;8.68;100153.13;5073583;28;20021;-69
2022/01/08 07:59:00;;;;;;;0.10;0.10;;;;;;;22.79;8.56;100158.59;5073528;28;20111;-69
2022/01/08 08:01:25;;;;;;;0.13;0.13;;;;;;;22.80;8.61;100154.75;5073606;28;20031;-69
2022/01/08 08:03:50;;;;;;;0.22;0.22;;;;;;;22.80;8.81;100155.59;5073616;28;20090;-69
2022/01/08 08:06:16;;;;;;;0.20;0.20;;;;;;;22.86;8.58;100153.66;5073314;28;20478;-69
2022/01/08 08:08:41;;;;;;;0.20;0.20;;;;;;;22.83;8.64;100152.28;5073720;28;20047;-69
2022/01/08 08:11:07;;;;;;;0.40;0.40;;;;;;;22.80;8.65;100157.47;5073495;28;20486;-69
2022/01/08 08:13:32;;;;;;;0.10;0.10;;;;;;;22.80;8.59;100154.75;5073485;28;20032;-70
2022/01/08 08:15:57;;;;;;;0.20;0.20;;;;;;;22.81;8.67;100153.66;5073155;28;20539;-69
2022/01/08 08:18:23;;;;;;;0.32;0.20;;;;;;;22.75;8.57;100152.03;5076139;28;20049;-69
2022/01/08 08:20:48;;;;;;;0.17;0.17;;;;;;;22.79;8.74;100155.84;5074202;28;20036;-69
2022/01/08 08:23:14;;;;;;;0.20;0.20;;;;;;;22.83;8.58;100159.66;5076732;28;20536;-70
2022/01/08 08:25:39;;;;;;;0.20;0.20;;;;;;;22.82;8.61;100158.84;5080132;28;20124;-69
2022/01/08 08:28:05;;;;;;;0.20;0.20;;;;;;;22.77;8.49;100166.22;5086748;28;20030;-68
2022/01/08 08:30:31;;;;;;;0.20;0.20;;;;;;;22.83;8.61;100159.66;5089678;28;20021;-69
2022/01/08 08:32:56;;;;;;;0.35;0.35;;;;;;;22.80;8.64;100157.47;5087952;28;20021;-69
2022/01/08 08:35:23;;;;;;;0.20;0.20;;;;;;;22.78;8.53;100156.94;5088217;28;20020;-69
2022/01/08 08:37:48;;;;;;;0.20;0.20;;;;;;;22.74;8.72;100156.66;5087246;28;20040;-69
2022/01/08 08:40:14;;;;;;;0.20;0.20;;;;;;;22.79;8.51;100162.13;5078436;28;20426;-69
2022/01/08 08:42:40;;;;;;;0.20;0.20;;;;;;;22.81;8.46;100161.84;5066447;28;20446;-69
2022/01/08 08:45:06;;;;;;;0.20;0.20;;;;;;;22.76;8.58;100164.56;5058642;28;20096;-69
2022/01/08 08:47:32;;;;;;;0.20;0.20;;;;;;;22.75;8.42;100163.75;5055984;28;20364;-69
2022/01/08 08:49:58;;;;;;;0.20;0.20;;;;;;;22.74;8.63;100164.84;5057005;28;20096;-69
2022/01/08 08:52:23;;;;;;;0.28;0.28;;;;;;;22.70;8.43;100161.03;5057098;28;20490;-69
2022/01/08 08:54:49;;;;;;;0.20;0.20;;;;;;;22.76;8.60;100159.13;5056288;28;20028;-69
2022/01/08 08:57:15;;;;;;;0.20;0.20;;;;;;;22.80;8.51;100162.91;5056262;28;20074;-70
2022/01/08 08:59:40;;;;;;;0.20;0.20;;;;;;;22.76;8.44;100153.69;5056615;28;20025;-69
2022/01/08 09:02:05;;;;;;;0.20;0.20;;;;;;;22.75;8.45;100158.31;5056284;28;20157;-69
2022/01/08 09:04:31;;;;;;;0.20;0.20;;;;;;;22.78;8.63;100152.28;5056511;28;20032;-69
2022/01/08 09:06:57;;;;;;;0.22;0.20;;;;;;;22.77;8.36;100150.69;5056217;28;20033;-69
2022/01/08 09:09:23;;;;;;;0.20;0.20;;;;;;;22.70;8.49;100150.16;5056465;28;20017;-69
2022/01/08 09:11:49;;;;;;;0.20;0.20;;;;;;;22.74;8.46;100145.78;5056400;28;20040;-69
2022/01/08 09:14:14;;;;;;;0.20;0.20;;;;;;;22.78;8.51;100156.94;5056081;28;20128;-69
2022/01/08 09:16:44;;;;;;;0.20;0.20;;;;;;;22.82;8.32;100147.16;5055680;28;20029;-69
2022/01/08 09:19:10;;;;;;;0.25;0.25;;;;;;;22.76;8.46;100149.03;5054981;28;20413;-69
2022/01/08 09:21:35;;;;;;;0.20;0.20;;;;;;;22.80;8.37;100139.25;5056358;28;20029;-69
2022/01/08 09:24:00;;;;;;;0.30;0.30;;;;;;;22.75;8.50;100138.41;5056198;28;20032;-69
2022/01/08 09:26:26;;;;;;;0.20;0.20;;;;;;;22.75;8.24;100139.25;5056125;28;20037;-69
2022/01/08 09:28:51;;;;;;;0.10;0.10;;;;;;;22.73;8.33;100130.50;5055725;28;20364;-69
2022/01/08 09:31:18;;;;;;;0.20;0.20;;;;;;;22.72;8.31;100125.38;5055749;28;20101;-69
2022/01/08 09:33:43;;;;;;;0.20;0.20;;;;;;;22.76;8.24;100129.16;5056139;28;20029;-69
2022/01/08 09:36:09;;;;;;;0.20;0.20;;;;;;;22.70;8.23;100133.81;5055667;28;20410;-70
2022/01/08 09:38:34;;;;;;;0.17;0.17;;;;;;;22.74;8.25;100118.53;5055688;28;20029;-69
2022/01/08 09:41:00;;;;;;;0.20;0.20;;;;;;;22.76;8.30;100126.44;5070483;28;20035;-69
2022/01/08 09:43:26;;;;;;;0.20;0.20;;;;;;;22.74;8.19;100120.44;5075798;28;20021;-70
2022/01/08 09:45:51;;;;;;;0.20;0.20;;;;;;;22.76;8.13;100129.16;5076080;28;20035;-70
2022/01/08 09:48:16;;;;;;;0.20;0.20;;;;;;;22.79;8.04;100128.63;5075849;28;20471;-69
2022/01/08 09:50:42;;;;;;;0.20;0.20;;;;;;;22.75;8.12;100124.78;5075618;28;20081;-69
2022/01/08 09:53:07;;;;;;;0.20;0.20;;;;;;;22.72;8.10;100133.53;5075734;28;20020;-69
2022/01/08 09:55:33;;;;;;;0.20;0.20;;;;;;;22.78;8.05;100137.88;5075314;28;20020;-70
2022/01/08 09:57:59;;;;;;;0.32;0.32;;;;;;;22.76;8.18;100131.88;5073976;28;20021;-70
2022/01/08 10:00:24;;;;;;;0.20;0.20;;;;;;;22.77;7.98;100123.44;5075555;28;20024;-69
2022/01/08 10:02:50;;;;;;;0.10;0.10;;;;;;;22.75;8.04;100135.69;5075564;28;20447;-70
2022/01/08 10:05:15;;;;;;;0.17;0.17;;;;;;;22.73;7.98;100130.50;5075447;28;20360;-68
2022/01/08 10:07:42;;;;;;;0.20;0.20;;;;;;;22.78;7.89;100125.06;5075644;28;20028;-70
2022/01/08 10:10:15;;;;;;;0.30;0.30;;;;;;;22.71;8.03;100118.28;5075008;28;20356;-68
2022/01/08 10:12:47;;;;;;;0.20;0.20;;;;;;;22.74;8.03;100117.72;5075437;28;20067;-68
2022/01/08 10:17:59;;;;;;;0.20;0.20;;;;;;;22.72;7.99;100112.56;5073705;28;20087;-69
2022/01/08 10:20:35;;;;;;;0.20;0.20;;;;;;;22.72;7.93;100119.91;5074740;28;20033;-69
2022/01/08 10:23:18;;;;;;;0.20;0.20;;;;;;;22.74;7.97;100109.56;5075060;28;20025;-69
2022/01/08 10:26:05;;;;;;;0.17;0.17;;;;;;;22.79;7.82;100109.53;5074635;28;20032;-69
2022/01/08 10:28:41;;;;;;;0.20;0.20;;;;;;;22.73;7.91;100107.91;5074888;28;20036;-69
2022/01/08 10:31:23;;;;;;;0.28;0.28;;;;;;;22.74;7.80;100110.38;5074620;28;20028;-69
2022/01/08 10:34:10;;;;;;;0.30;0.20;;;;;;;22.71;7.87;100110.09;5074483;28;20471;-69
2022/01/08 10:36:46;;;;;;;0.25;0.20;;;;;;;22.74;7.76;100101.38;5074339;28;20025;-69
2022/01/08 10:39:19;;;;;;;0.20;0.20;;;;;;;22.71;7.86;100101.94;5074823;28;20103;-69
2022/01/08 10:41:46;;;;;;;0.20;0.20;;;;;;;22.72;7.79;100092.69;5033599;28;20045;-70
2022/01/08 10:44:26;;;;;;;0.35;0.35;;;;;;;22.71;7.71;100096.47;5034454;28;20030;-69
2022/01/08 10:46:51;;;;;;;0.43;0.40;;;;;;;22.73;7.87;100088.84;5034427;28;20475;-69
2022/01/08 10:49:17;;;;;;;0.30;0.30;;;;;;;22.68;7.91;100087.78;5034151;28;20181;-69
2022/01/08 10:51:42;;;;;;;0.45;0.45;;;;;;;22.72;7.47;100088.03;5034477;28;20025;-69
2022/01/08 10:54:16;;;;;;;0.40;0.40;;;;;;;22.71;7.80;100085.59;5035015;28;20075;-70
2022/01/08 10:56:42;;;;;;;;;;;;;;;22.99;7.83;100079.53;5035077;28;20030;-68
2022/01/08 10:59:18;;;;;;;0.40;0.40;;;;;;;22.78;7.66;100072.50;5034787;28;19917;-69
2022/01/08 11:02:07;;;;;;;0.40;0.40;;;;;;;22.79;7.69;100071.41;5034735;28;20075;-70
2022/01/08 11:04:53;;;;;;;0.30;0.30;;;;;;;22.73;7.78;100069.78;5033289;28;20107;-70
2022/01/08 11:07:25;;;;;;;0.40;0.40;;;;;;;22.68;7.68;100071.44;5041728;28;20030;-69
2022/01/08 11:09:52;;;;;;;0.40;0.40;;;;;;;22.63;7.85;100071.44;5050525;28;20026;-69
2022/01/08 11:12:19;;;;;;;0.50;0.50;;;;;;;22.65;7.84;100068.44;5048381;28;20045;-68
2022/01/08 11:17:33;;;;;;;0.50;0.50;;;;;;;22.77;7.83;100059.97;5046270;28;20080;-70
2022/01/08 11:20:27;;;;;;;0.60;0.60;;;;;;;22.76;7.82;100056.41;5018942;28;20037;-69
2022/01/08 11:22:55;;;;;;;0.50;0.50;;;;;;;22.73;7.66;100056.97;5012237;28;20102;-69
2022/01/08 11:25:26;;;;;;;0.57;0.57;;;;;;;22.68;7.67;100054.28;5012169;28;20387;-70
2022/01/08 11:28:07;;;;;;;0.40;0.40;;;;;;;22.73;7.76;100056.16;5012167;28;20037;-70
2022/01/08 11:30:34;;;;;;;0.50;0.50;;;;;;;22.75;7.62;100048.50;5011802;28;20038;-68
2022/01/08 11:33:07;;;;;;;0.50;0.50;;;;;;;22.68;7.74;100049.63;5012271;28;20034;-70
2022/01/08 11:35:34;;;;;;;0.40;0.40;;;;;;;22.62;7.75;100039.84;5011720;28;20034;-69
2022/01/08 11:38:03;;;;;;;0.30;0.30;;;;;;;22.73;7.58;100050.72;5011693;28;20038;-69
2022/01/08 11:40:29;;;;;;;0.40;0.40;;;;;;;22.67;7.71;100041.75;5011460;28;20030;-69
2022/01/08 11:42:54;;;;;;;0.30;0.30;;;;;;;22.68;7.56;100038.75;5011604;28;20026;-69
2022/01/08 11:45:25;;;;;;;0.50;0.50;;;;;;;22.69;7.73;100045.81;5011691;28;20496;-70
2022/01/08 11:47:52;;;;;;;0.60;0.55;;;;;;;22.72;7.59;100044.44;5011551;28;20029;-69
2022/01/08 11:50:19;;;;;;;0.38;0.35;;;;;;;22.69;7.67;100034.91;5011564;28;20029;-69
2022/01/08 11:52:45;;;;;;;0.40;0.40;;;;;;;22.68;7.53;100037.94;5011533;28;20483;-69
2022/01/08 11:55:10;;;;;;;0.60;0.60;;;;;;;22.73;7.63;100034.38;5011363;28;20026;-69
2022/01/08 11:57:36;;;;;;;0.50;0.50;;;;;;;22.69;7.69;100034.91;5027351;28;20044;-69
2022/01/08 12:00:02;;;;;;;0.40;0.40;;;;;;;22.69;7.73;100034.91;5033540;28;20352;-69
2022/01/08 12:02:38;;;;;;;0.38;0.38;;;;;;;22.67;7.78;100025.41;5032414;28;20022;-70